sensor_id;sensor_type;location;lat;lon;timestamp;pressure;altitude;pressure_sealevel;temperature;humidity
62789;BME280;48826;42.016;21.454;2022-12-20T00:00:59;100049.38;;;26.64;21.27
62789;BME280;48826;42.016;21.454;2022-12-20T00:03:25;100050.66;;;26.62;20.26
62789;BME280;48826;42.016;21.454;2022-12-20T00:05:51;100054.91;;;26.58;21.12
62789;BME280;48826;42.016;21.454;2022-12-20T00:08:16;100052.69;;;26.49;20.53
62789;BME280;48826;42.016;21.454;2022-12-20T00:10:43;100050.56;;;26.51;20.46
62789;BME280;48826;42.016;21.454;2022-12-20T00:13:10;100048.97;;;26.50;20.94
62789;BME280;48826;42.016;21.454;2022-12-20T00:15:36;100048.13;;;26.45;20.82
62789;BME280;48826;42.016;21.454;2022-12-20T00:18:02;100052.09;;;26.42;20.38
62789;BME280;48826;42.016;21.454;2022-12-20T00:20:28;100056.94;;;26.45;20.56
62789;BME280;48826;42.016;21.454;2022-12-20T00:22:54;100048.88;;;26.40;20.44
62789;BME280;48826;42.016;21.454;2022-12-20T00:25:20;100042.97;;;26.38;20.20
62789;BME280;48826;42.016;21.454;2022-12-20T00:27:47;100044.50;;;26.34;20.30
62789;BME280;48826;42.016;21.454;2022-12-20T00:30:12;100041.28;;;26.32;20.10
62789;BME280;48826;42.016;21.454;2022-12-20T00:32:38;100042.06;;;26.33;20.17
62789;BME280;48826;42.016;21.454;2022-12-20T00:35:04;100039.38;;;26.28;20.09
62789;BME280;48826;42.016;21.454;2022-12-20T00:37:30;100046.06;;;26.30;19.60
62789;BME280;48826;42.016;21.454;2022-12-20T00:39:55;100059.94;;;26.27;19.91
62789;BME280;48826;42.016;21.454;2022-12-20T00:42:21;100053.78;;;26.27;19.92
62789;BME280;48826;42.016;21.454;2022-12-20T00:44:47;100042.22;;;26.21;20.12
62789;BME280;48826;42.016;21.454;2022-12-20T00:47:12;100039.81;;;26.19;19.83
62789;BME280;48826;42.016;21.454;2022-12-20T00:49:39;100043.28;;;26.20;20.00
62789;BME280;48826;42.016;21.454;2022-12-20T00:52:04;100037.94;;;26.20;19.70
62789;BME280;48826;42.016;21.454;2022-12-20T00:54:29;100048.63;;;26.20;19.77
62789;BME280;48826;42.016;21.454;2022-12-20T00:56:55;100044.91;;;26.21;20.32
62789;BME280;48826;42.016;21.454;2022-12-20T00:59:21;100040.06;;;26.18;19.49
62789;BME280;48826;42.016;21.454;2022-12-20T01:01:46;100031.50;;;26.16;19.68
62789;BME280;48826;42.016;21.454;2022-12-20T01:04:19;100031.72;;;26.14;19.92
62789;BME280;48826;42.016;21.454;2022-12-20T01:06:45;100029.88;;;26.15;19.46
62789;BME280;48826;42.016;21.454;2022-12-20T01:09:11;100015.13;;;26.07;19.52
62789;BME280;48826;42.016;21.454;2022-12-20T01:11:37;100019.69;;;26.12;20.08
62789;BME280;48826;42.016;21.454;2022-12-20T01:14:10;100014.63;;;26.10;19.80
62789;BME280;48826;42.016;21.454;2022-12-20T01:16:39;100013.50;;;26.06;20.25
62789;BME280;48826;42.016;21.454;2022-12-20T01:19:06;100017.47;;;26.04;19.90
62789;BME280;48826;42.016;21.454;2022-12-20T01:21:32;100015.59;;;26.04;19.22
62789;BME280;48826;42.016;21.454;2022-12-20T01:23:58;100010.53;;;26.03;19.50
62789;BME280;48826;42.016;21.454;2022-12-20T01:26:26;100012.13;;;26.04;19.35
62789;BME280;48826;42.016;21.454;2022-12-20T01:28:57;100016.91;;;26.02;19.78
62789;BME280;48826;42.016;21.454;2022-12-20T01:31:24;100014.75;;;25.99;19.30
62789;BME280;48826;42.016;21.454;2022-12-20T01:33:51;100005.38;;;25.96;19.41
62789;BME280;48826;42.016;21.454;2022-12-20T01:36:20;100001.34;;;25.93;19.78
62789;BME280;48826;42.016;21.454;2022-12-20T01:38:46;100000.88;;;25.96;19.27
62789;BME280;48826;42.016;21.454;2022-12-20T01:41:19;99989.56;;;25.89;19.60
62789;BME280;48826;42.016;21.454;2022-12-20T01:44:02;99981.03;;;25.92;20.05
62789;BME280;48826;42.016;21.454;2022-12-20T01:46:30;99971.31;;;25.81;19.35
62789;BME280;48826;42.016;21.454;2022-12-20T01:51:29;99970.81;;;25.84;19.24
62789;BME280;48826;42.016;21.454;2022-12-20T01:54:09;99968.38;;;25.83;19.30
62789;BME280;48826;42.016;21.454;2022-12-20T01:56:38;99978.88;;;25.89;19.66
62789;BME280;48826;42.016;21.454;2022-12-20T01:59:05;99977.28;;;25.88;19.82
62789;BME280;48826;42.016;21.454;2022-12-20T02:01:32;99965.19;;;25.81;18.98
62789;BME280;48826;42.016;21.454;2022-12-20T02:03:58;99969.81;;;25.90;19.78
62789;BME280;48826;42.016;21.454;2022-12-20T02:06:25;99954.19;;;25.77;19.18
62789;BME280;48826;42.016;21.454;2022-12-20T02:08:53;99968.47;;;25.88;19.38
62789;BME280;48826;42.016;21.454;2022-12-20T02:17:01;99959.31;;;25.84;19.09
62789;BME280;48826;42.016;21.454;2022-12-20T02:25:31;99965.19;;;25.81;18.85
62789;BME280;48826;42.016;21.454;2022-12-20T02:28:40;99959.84;;;25.81;19.06
62789;BME280;48826;42.016;21.454;2022-12-20T02:31:04;99964.38;;;25.80;19.72
62789;BME280;48826;42.016;21.454;2022-12-20T02:33:32;99961.16;;;25.78;19.81
62789;BME280;48826;42.016;21.454;2022-12-20T02:35:57;99961.16;;;25.78;19.03
62789;BME280;48826;42.016;21.454;2022-12-20T02:38:29;99962.75;;;25.79;19.01
62789;BME280;48826;42.016;21.454;2022-12-20T02:41:03;99966.53;;;25.83;19.30
62789;BME280;48826;42.016;21.454;2022-12-20T02:43:31;99960.63;;;25.81;19.27
62789;BME280;48826;42.016;21.454;2022-12-20T02:46:18;99958.53;;;25.83;19.63
62789;BME280;48826;42.016;21.454;2022-12-20T02:48:47;99957.41;;;25.79;19.68
62789;BME280;48826;42.016;21.454;2022-12-20T02:51:14;99956.66;;;25.84;18.89
62789;BME280;48826;42.016;21.454;2022-12-20T02:53:40;99949.97;;;25.81;19.13
62789;BME280;48826;42.016;21.454;2022-12-20T02:56:11;99953.69;;;25.80;19.55
62789;BME280;48826;42.016;21.454;2022-12-20T02:58:54;99953.69;;;25.80;19.69
62789;BME280;48826;42.016;21.454;2022-12-20T03:01:44;99954.50;;;25.81;18.78
62789;BME280;48826;42.016;21.454;2022-12-20T03:04:11;99954.19;;;25.77;19.49
62789;BME280;48826;42.016;21.454;2022-12-20T03:06:38;99949.84;;;25.71;19.04
62789;BME280;48826;42.016;21.454;2022-12-20T03:09:04;99953.38;;;25.77;19.46
62789;BME280;48826;42.016;21.454;2022-12-20T03:11:29;99957.41;;;25.79;19.47
62789;BME280;48826;42.016;21.454;2022-12-20T03:13:55;99959.53;;;25.77;19.25
62789;BME280;48826;42.016;21.454;2022-12-20T03:16:21;99960.09;;;25.79;19.17
62789;BME280;48826;42.016;21.454;2022-12-20T03:18:46;99945.31;;;25.72;19.53
62789;BME280;48826;42.016;21.454;2022-12-20T03:21:12;99958.97;;;25.75;19.35
62789;BME280;48826;42.016;21.454;2022-12-20T03:23:38;99962.75;;;25.79;18.92
62789;BME280;48826;42.016;21.454;2022-12-20T03:26:06;99955.00;;;25.78;19.19
62789;BME280;48826;42.016;21.454;2022-12-20T03:28:32;99950.94;;;25.75;19.20
62789;BME280;48826;42.016;21.454;2022-12-20T03:30:57;99953.69;;;25.80;19.00
62789;BME280;48826;42.016;21.454;2022-12-20T03:33:23;99956.91;;;25.82;19.45
62789;BME280;48826;42.016;21.454;2022-12-20T03:35:48;99954.53;;;25.86;19.54
62789;BME280;48826;42.016;21.454;2022-12-20T03:38:14;99951.56;;;25.82;19.53
62789;BME280;48826;42.016;21.454;2022-12-20T03:40:39;99937.13;;;25.78;19.50
62789;BME280;48826;42.016;21.454;2022-12-20T03:43:05;99951.06;;;25.85;18.89
62789;BME280;48826;42.016;21.454;2022-12-20T03:45:30;99951.06;;;25.85;19.01
62789;BME280;48826;42.016;21.454;2022-12-20T03:47:56;99947.59;;;25.85;19.12
62789;BME280;48826;42.016;21.454;2022-12-20T03:50:21;99941.78;;;25.88;19.23
62789;BME280;48826;42.016;21.454;2022-12-20T03:52:47;99946.31;;;25.87;19.39
62789;BME280;48826;42.016;21.454;2022-12-20T03:55:12;99939.56;;;25.85;18.45
62789;BME280;48826;42.016;21.454;2022-12-20T03:57:38;99944.66;;;25.86;19.17
62789;BME280;48826;42.016;21.454;2022-12-20T04:00:05;99934.56;;;25.88;18.65
62789;BME280;48826;42.016;21.454;2022-12-20T04:02:30;99925.69;;;25.83;19.10
62789;BME280;48826;42.016;21.454;2022-12-20T04:04:56;99938.28;;;25.87;18.67
62789;BME280;48826;42.016;21.454;2022-12-20T04:07:22;99936.19;;;25.89;18.63
62789;BME280;48826;42.016;21.454;2022-12-20T04:09:47;99941.50;;;25.89;18.84
62789;BME280;48826;42.016;21.454;2022-12-20T04:12:13;99925.38;;;25.79;18.91
62789;BME280;48826;42.016;21.454;2022-12-20T04:14:38;99943.06;;;25.85;19.30
62789;BME280;48826;42.016;21.454;2022-12-20T04:17:04;99940.38;;;25.85;18.55
62789;BME280;48826;42.016;21.454;2022-12-20T04:19:29;99934.56;;;25.88;19.00
62789;BME280;48826;42.016;21.454;2022-12-20T04:21:55;99938.78;;;25.84;18.95
62789;BME280;48826;42.016;21.454;2022-12-20T04:24:22;99937.97;;;25.84;18.52
62789;BME280;48826;42.016;21.454;2022-12-20T04:26:48;99936.66;;;25.86;19.27
62789;BME280;48826;42.016;21.454;2022-12-20T04:29:14;99945.50;;;25.87;18.54
62789;BME280;48826;42.016;21.454;2022-12-20T04:31:40;99933.44;;;25.84;18.35
62789;BME280;48826;42.016;21.454;2022-12-20T04:34:06;99938.78;;;25.84;19.25
62789;BME280;48826;42.016;21.454;2022-12-20T04:36:31;99934.25;;;25.85;19.04
62789;BME280;48826;42.016;21.454;2022-12-20T04:38:57;99942.81;;;25.87;18.45
62789;BME280;48826;42.016;21.454;2022-12-20T04:41:22;99928.63;;;25.81;18.95
62789;BME280;48826;42.016;21.454;2022-12-20T04:43:53;99944.91;;;25.85;18.45
62789;BME280;48826;42.016;21.454;2022-12-20T04:46:21;99945.72;;;25.85;19.10
62789;BME280;48826;42.016;21.454;2022-12-20T04:48:47;99938.22;;;25.82;18.54
62789;BME280;48826;42.016;21.454;2022-12-20T04:51:12;99943.63;;;25.87;18.76
62789;BME280;48826;42.016;21.454;2022-12-20T04:53:38;99942.00;;;25.86;18.38
62789;BME280;48826;42.016;21.454;2022-12-20T04:56:24;99938.28;;;25.87;18.83
62789;BME280;48826;42.016;21.454;2022-12-20T04:58:53;99929.72;;;25.85;18.34
62789;BME280;48826;42.016;21.454;2022-12-20T05:01:19;99935.56;;;25.82;19.13
62789;BME280;48826;42.016;21.454;2022-12-20T05:03:44;99926.69;;;25.77;18.91
62789;BME280;48826;42.016;21.454;2022-12-20T05:06:10;99937.16;;;25.83;18.35
62789;BME280;48826;42.016;21.454;2022-12-20T05:09:03;99933.44;;;25.84;18.34
62789;BME280;48826;42.016;21.454;2022-12-20T05:11:29;99934.50;;;25.83;18.96
62789;BME280;48826;42.016;21.454;2022-12-20T05:13:54;99930.78;;;25.84;18.26
62789;BME280;48826;42.016;21.454;2022-12-20T05:16:20;99925.97;;;25.86;18.20
62789;BME280;48826;42.016;21.454;2022-12-20T05:18:45;99920.06;;;25.79;18.92
62789;BME280;48826;42.016;21.454;2022-12-20T05:21:11;99925.69;;;25.83;18.15
62789;BME280;48826;42.016;21.454;2022-12-20T05:23:55;99932.38;;;25.85;18.87
62789;BME280;48826;42.016;21.454;2022-12-20T05:26:40;99935.03;;;25.85;18.67
62789;BME280;48826;42.016;21.454;2022-12-20T05:29:05;99936.09;;;25.84;18.29
62789;BME280;48826;42.016;21.454;2022-12-20T05:31:31;99931.81;;;25.83;18.09
62789;BME280;48826;42.016;21.454;2022-12-20T05:33:56;99934.50;;;25.83;18.54
62789;BME280;48826;42.016;21.454;2022-12-20T05:36:22;99927.00;;;25.80;18.29
62789;BME280;48826;42.016;21.454;2022-12-20T05:38:47;99925.94;;;25.81;18.56
62789;BME280;48826;42.016;21.454;2022-12-20T05:41:13;99929.41;;;25.82;18.57
62789;BME280;48826;42.016;21.454;2022-12-20T05:43:40;99916.84;;;25.77;18.61
62789;BME280;48826;42.016;21.454;2022-12-20T05:46:05;99887.97;;;25.52;18.63
62789;BME280;48826;42.016;21.454;2022-12-20T05:48:31;99931.53;;;25.80;18.51
62789;BME280;48826;42.016;21.454;2022-12-20T05:50:58;99934.75;;;25.82;18.30
62789;BME280;48826;42.016;21.454;2022-12-20T05:53:23;99929.13;;;25.78;18.23
62789;BME280;48826;42.016;21.454;2022-12-20T05:55:52;99938.41;;;25.76;18.77
62789;BME280;48826;42.016;21.454;2022-12-20T05:58:18;99937.69;;;25.80;18.79
62789;BME280;48826;42.016;21.454;2022-12-20T06:00:44;99939.78;;;25.78;18.20
62789;BME280;48826;42.016;21.454;2022-12-20T06:03:10;99942.47;;;25.78;18.21
62789;BME280;48826;42.016;21.454;2022-12-20T06:05:37;99938.19;;;25.77;18.70
62789;BME280;48826;42.016;21.454;2022-12-20T06:08:04;99939.53;;;25.80;18.84
62789;BME280;48826;42.016;21.454;2022-12-20T06:10:31;99941.41;;;25.79;18.83
62789;BME280;48826;42.016;21.454;2022-12-20T06:12:57;99899.97;;;25.50;18.26
62789;BME280;48826;42.016;21.454;2022-12-20T06:15:22;99938.75;;;25.79;18.70
62789;BME280;48826;42.016;21.454;2022-12-20T06:17:48;99930.47;;;25.81;19.03
62789;BME280;48826;42.016;21.454;2022-12-20T06:20:13;99929.94;;;25.79;18.46
62789;BME280;48826;42.016;21.454;2022-12-20T06:22:38;99934.47;;;25.78;18.65
62789;BME280;48826;42.016;21.454;2022-12-20T06:25:05;99922.19;;;25.77;18.89
62789;BME280;48826;42.016;21.454;2022-12-20T06:27:33;99927.28;;;25.84;18.77
62789;BME280;48826;42.016;21.454;2022-12-20T06:29:59;99917.16;;;25.86;18.62
62789;BME280;48826;42.016;21.454;2022-12-20T06:32:24;99916.25;;;25.75;18.29
62789;BME280;48826;42.016;21.454;2022-12-20T06:34:50;99922.75;;;25.84;18.78
62789;BME280;48826;42.016;21.454;2022-12-20T06:37:15;99921.97;;;25.84;18.32
62789;BME280;48826;42.016;21.454;2022-12-20T06:39:41;99917.41;;;25.84;18.38
62789;BME280;48826;42.016;21.454;2022-12-20T06:42:06;99917.94;;;25.81;18.67
62789;BME280;48826;42.016;21.454;2022-12-20T06:44:32;99909.81;;;25.71;18.92
62789;BME280;48826;42.016;21.454;2022-12-20T06:46:57;99927.56;;;25.82;18.68
62789;BME280;48826;42.016;21.454;2022-12-20T06:49:23;99921.69;;;25.85;18.85
62789;BME280;48826;42.016;21.454;2022-12-20T06:51:49;99902.09;;;25.75;18.39
62789;BME280;48826;42.016;21.454;2022-12-20T06:54:15;99921.81;;;25.95;19.92
62789;BME280;48826;42.016;21.454;2022-12-20T06:56:41;99896.69;;;25.91;21.88
62789;BME280;48826;42.016;21.454;2022-12-20T06:59:06;99916.41;;;26.17;22.19
62789;BME280;48826;42.016;21.454;2022-12-20T07:01:32;99917.56;;;26.27;22.17
62789;BME280;48826;42.016;21.454;2022-12-20T07:03:57;99921.16;;;26.37;23.46
62789;BME280;48826;42.016;21.454;2022-12-20T07:06:23;99918.50;;;26.42;22.71
62789;BME280;48826;42.016;21.454;2022-12-20T07:08:49;99925.78;;;26.47;22.46
62789;BME280;48826;42.016;21.454;2022-12-20T07:11:14;99911.88;;;26.45;22.53
62789;BME280;48826;42.016;21.454;2022-12-20T07:13:40;99911.06;;;26.44;23.14
62789;BME280;48826;42.016;21.454;2022-12-20T07:16:05;99868.84;;;26.14;22.81
62789;BME280;48826;42.016;21.454;2022-12-20T07:18:31;99913.16;;;26.42;22.02
62789;BME280;48826;42.016;21.454;2022-12-20T07:21:03;99907.03;;;26.42;22.09
62789;BME280;48826;42.016;21.454;2022-12-20T07:23:29;99901.41;;;26.43;22.43
62789;BME280;48826;42.016;21.454;2022-12-20T07:25:56;99912.69;;;26.45;22.22
62789;BME280;48826;42.016;21.454;2022-12-20T07:28:23;99906.81;;;26.48;22.76
62789;BME280;48826;42.016;21.454;2022-12-20T07:30:49;99906.28;;;26.51;22.46
62789;BME280;48826;42.016;21.454;2022-12-20T07:33:16;99919.69;;;26.57;21.83
62789;BME280;48826;42.016;21.454;2022-12-20T07:35:41;99911.97;;;26.60;22.51
62789;BME280;48826;42.016;21.454;2022-12-20T07:38:11;99914.44;;;26.67;22.74
62789;BME280;48826;42.016;21.454;2022-12-20T07:40:39;99903.72;;;26.67;22.80
62789;BME280;48826;42.016;21.454;2022-12-20T07:43:06;99905.63;;;26.71;23.50
62789;BME280;48826;42.016;21.454;2022-12-20T07:45:31;99905.13;;;26.79;23.24
62789;BME280;48826;42.016;21.454;2022-12-20T07:47:58;99909.72;;;26.84;22.58
62789;BME280;48826;42.016;21.454;2022-12-20T07:50:23;99910.81;;;26.88;23.17
62789;BME280;48826;42.016;21.454;2022-12-20T07:52:50;99913.75;;;26.92;23.40
62789;BME280;48826;42.016;21.454;2022-12-20T07:55:16;99907.13;;;26.94;22.55
62789;BME280;48826;42.016;21.454;2022-12-20T07:57:51;99906.59;;;26.97;22.77
62789;BME280;48826;42.016;21.454;2022-12-20T08:00:19;99894.53;;;26.95;23.22
62789;BME280;48826;42.016;21.454;2022-12-20T08:03:34;99895.09;;;27.02;23.31
62789;BME280;48826;42.016;21.454;2022-12-20T08:05:44;99885.47;;;27.01;23.38
62789;BME280;48826;42.016;21.454;2022-12-20T08:08:11;99899.97;;;27.10;23.08
62789;BME280;48826;42.016;21.454;2022-12-20T08:10:37;99890.09;;;27.05;22.74
62789;BME280;48826;42.016;21.454;2022-12-20T08:13:04;99898.41;;;27.14;23.18
62789;BME280;48826;42.016;21.454;2022-12-20T08:15:31;99889.03;;;27.12;23.53
62789;BME280;48826;42.016;21.454;2022-12-20T08:17:57;99901.63;;;27.16;22.92
62789;BME280;48826;42.016;21.454;2022-12-20T08:20:23;99901.09;;;27.14;22.97
62789;BME280;48826;42.016;21.454;2022-12-20T08:22:49;99898.69;;;27.18;23.22
62789;BME280;48826;42.016;21.454;2022-12-20T08:25:14;99894.94;;;27.19;23.20
62789;BME280;48826;42.016;21.454;2022-12-20T08:27:40;99892.81;;;27.21;23.42
62789;BME280;48826;42.016;21.454;2022-12-20T08:30:06;99895.78;;;27.24;23.34
62789;BME280;48826;42.016;21.454;2022-12-20T08:32:33;99878.09;;;27.18;22.98
62789;BME280;48826;42.016;21.454;2022-12-20T08:34:58;99879.44;;;27.16;22.94
62789;BME280;48826;42.016;21.454;2022-12-20T08:37:24;99889.38;;;27.25;23.60
62789;BME280;48826;42.016;21.454;2022-12-20T08:39:49;99895.53;;;27.26;23.73
62789;BME280;48826;42.016;21.454;2022-12-20T08:42:15;99897.13;;;27.27;23.10
62789;BME280;48826;42.016;21.454;2022-12-20T08:44:40;99892.31;;;27.29;23.01
62789;BME280;48826;42.016;21.454;2022-12-20T08:47:06;99884.81;;;27.26;23.73
62789;BME280;48826;42.016;21.454;2022-12-20T08:49:32;99891.78;;;27.27;23.91
62789;BME280;48826;42.016;21.454;2022-12-20T08:51:58;99896.59;;;27.30;23.71
62789;BME280;48826;42.016;21.454;2022-12-20T08:54:23;99893.41;;;27.33;23.20
62789;BME280;48826;42.016;21.454;2022-12-20T08:56:48;99877.88;;;27.30;23.28
62789;BME280;48826;42.016;21.454;2022-12-20T08:59:14;99885.38;;;27.33;23.17
62789;BME280;48826;42.016;21.454;2022-12-20T09:01:39;99882.72;;;27.38;23.13
62789;BME280;48826;42.016;21.454;2022-12-20T09:04:05;99876.84;;;27.41;23.81
62789;BME280;48826;42.016;21.454;2022-12-20T09:06:33;99864.78;;;27.33;23.26
62789;BME280;48826;42.016;21.454;2022-12-20T09:08:58;99878.47;;;27.42;23.01
62789;BME280;48826;42.016;21.454;2022-12-20T09:11:25;99868.56;;;27.43;23.25
62789;BME280;48826;42.016;21.454;2022-12-20T09:13:54;99865.63;;;27.44;23.26
62789;BME280;48826;42.016;21.454;2022-12-20T09:16:22;99864.00;;;27.43;22.99
62789;BME280;48826;42.016;21.454;2022-12-20T09:18:49;99862.66;;;27.46;23.71
62789;BME280;48826;42.016;21.454;2022-12-20T09:21:16;99856.50;;;27.45;23.64
62789;BME280;48826;42.016;21.454;2022-12-20T09:23:41;99861.34;;;27.48;23.43
62789;BME280;48826;42.016;21.454;2022-12-20T09:26:10;99848.47;;;27.50;23.44
62789;BME280;48826;42.016;21.454;2022-12-20T09:28:36;99831.91;;;27.43;23.28
62789;BME280;48826;42.016;21.454;2022-12-20T09:31:04;99839.66;;;27.45;23.14
62789;BME280;48826;42.016;21.454;2022-12-20T09:33:32;99837.53;;;27.52;23.87
62789;BME280;48826;42.016;21.454;2022-12-20T09:35:58;99842.63;;;27.53;23.70
62789;BME280;48826;42.016;21.454;2022-12-20T09:38:25;99838.88;;;27.54;23.80
62789;BME280;48826;42.016;21.454;2022-12-20T09:40:55;99839.69;;;27.55;23.73
62789;BME280;48826;42.016;21.454;2022-12-20T09:43:22;99830.31;;;27.52;24.24
62789;BME280;48826;42.016;21.454;2022-12-20T09:45:51;99816.91;;;27.47;24.33
62789;BME280;48826;42.016;21.454;2022-12-20T09:48:28;99815.84;;;27.48;24.36
62789;BME280;48826;42.016;21.454;2022-12-20T09:56:42;99799.00;;;27.53;23.94
62789;BME280;48826;42.016;21.454;2022-12-20T09:59:18;99817.47;;;27.59;24.21
62789;BME280;48826;42.016;21.454;2022-12-20T10:01:45;99761.78;;;27.36;24.57
62789;BME280;48826;42.016;21.454;2022-12-20T10:04:31;99793.66;;;27.63;24.88
62789;BME280;48826;42.016;21.454;2022-12-20T10:09:46;99783.84;;;26.96;19.24
62789;BME280;48826;42.016;21.454;2022-12-20T10:15:19;99777.81;;;26.58;23.23
62789;BME280;48826;42.016;21.454;2022-12-20T10:18:44;99776.81;;;26.74;23.59
62789;BME280;48826;42.016;21.454;2022-12-20T10:21:24;99761.91;;;26.89;23.42
62789;BME280;48826;42.016;21.454;2022-12-20T10:24:28;99759.78;;;27.01;22.94
62789;BME280;48826;42.016;21.454;2022-12-20T10:26:55;99754.50;;;27.11;23.50
62789;BME280;48826;42.016;21.454;2022-12-20T10:29:21;99742.50;;;27.14;23.11
62789;BME280;48826;42.016;21.454;2022-12-20T10:31:53;99751.59;;;27.23;22.82
62789;BME280;48826;42.016;21.454;2022-12-20T10:34:23;99751.31;;;27.29;23.15
62789;BME280;48826;42.016;21.454;2022-12-20T10:37:12;99740.91;;;27.33;22.37
62789;BME280;48826;42.016;21.454;2022-12-20T10:39:43;99723.25;;;27.32;23.01
62789;BME280;48826;42.016;21.454;2022-12-20T10:45:00;99710.97;;;27.41;22.44
62789;BME280;48826;42.016;21.454;2022-12-20T10:47:37;99717.66;;;27.44;22.74
62789;BME280;48826;42.016;21.454;2022-12-20T10:52:41;99702.94;;;27.51;22.49
62789;BME280;48826;42.016;21.454;2022-12-20T10:58:02;99713.63;;;27.56;22.09
62789;BME280;48826;42.016;21.454;2022-12-20T11:00:29;99709.34;;;27.60;22.57
62789;BME280;48826;42.016;21.454;2022-12-20T11:03:12;99695.72;;;27.52;22.29
62789;BME280;48826;42.016;21.454;2022-12-20T11:05:38;99698.91;;;27.64;22.27
62789;BME280;48826;42.016;21.454;2022-12-20T11:10:32;99697.88;;;27.70;22.49
62789;BME280;48826;42.016;21.454;2022-12-20T11:13:00;99694.91;;;27.72;22.54
62789;BME280;48826;42.016;21.454;2022-12-20T11:15:35;99687.41;;;27.74;22.27
62789;BME280;48826;42.016;21.454;2022-12-20T11:21:30;99678.03;;;27.76;22.52
62789;BME280;48826;42.016;21.454;2022-12-20T11:27:06;99660.63;;;27.84;21.78
62789;BME280;48826;42.016;21.454;2022-12-20T11:35:21;99656.31;;;27.88;22.49
62789;BME280;48826;42.016;21.454;2022-12-20T11:40:41;99648.84;;;27.90;21.73
62789;BME280;48826;42.016;21.454;2022-12-20T11:43:27;99616.47;;;27.76;21.94
62789;BME280;48826;42.016;21.454;2022-12-20T11:51:23;99633.03;;;27.93;22.06
62789;BME280;48826;42.016;21.454;2022-12-20T11:59:04;99604.09;;;27.95;21.84
62789;BME280;48826;42.016;21.454;2022-12-20T12:01:37;99616.91;;;28.04;21.76
62789;BME280;48826;42.016;21.454;2022-12-20T12:04:21;99616.69;;;28.00;21.87
62789;BME280;48826;42.016;21.454;2022-12-20T12:06:58;99617.97;;;28.08;22.32
62789;BME280;48826;42.016;21.454;2022-12-20T12:12:16;99594.69;;;27.98;21.57
62789;BME280;48826;42.016;21.454;2022-12-20T12:14:53;99602.16;;;28.06;21.57
62789;BME280;48826;42.016;21.454;2022-12-20T12:20:05;99589.09;;;28.00;21.42
62789;BME280;48826;42.016;21.454;2022-12-20T12:22:39;99595.50;;;27.99;21.73
62789;BME280;48826;42.016;21.454;2022-12-20T12:25:11;99589.91;;;28.00;21.66
62789;BME280;48826;42.016;21.454;2022-12-20T12:27:38;99583.44;;;28.06;22.16
62789;BME280;48826;42.016;21.454;2022-12-20T12:30:04;99578.06;;;28.06;22.15
62789;BME280;48826;42.016;21.454;2022-12-20T12:35:36;99571.13;;;28.05;21.83
62789;BME280;48826;42.016;21.454;2022-12-20T12:43:48;99571.63;;;28.12;22.22
62789;BME280;48826;42.016;21.454;2022-12-20T12:48:48;99568.44;;;28.10;21.52
62789;BME280;48826;42.016;21.454;2022-12-20T12:51:26;99564.16;;;28.09;21.91
62789;BME280;48826;42.016;21.454;2022-12-20T12:54:01;99552.88;;;28.07;21.75
62789;BME280;48826;42.016;21.454;2022-12-20T12:56:28;99555.03;;;28.10;22.03
62789;BME280;48826;42.016;21.454;2022-12-20T13:04:24;99550.19;;;28.12;21.67
62789;BME280;48826;42.016;21.454;2022-12-20T13:06:57;99532.81;;;28.05;21.79
62789;BME280;48826;42.016;21.454;2022-12-20T13:11:51;99548.03;;;28.14;21.44
62789;BME280;48826;42.016;21.454;2022-12-20T13:16:46;99500.78;;;27.84;22.00
62789;BME280;48826;42.016;21.454;2022-12-20T13:19:14;99537.09;;;28.11;21.96
62789;BME280;48826;42.016;21.454;2022-12-20T13:21:47;99528.81;;;28.02;21.70
62789;BME280;48826;42.016;21.454;2022-12-20T13:27:25;99526.31;;;28.16;21.40
62789;BME280;48826;42.016;21.454;2022-12-20T13:30:23;99521.25;;;28.14;21.78
62789;BME280;48826;42.016;21.454;2022-12-20T13:40:48;99524.22;;;28.13;21.80
62789;BME280;48826;42.016;21.454;2022-12-20T13:51:15;99511.13;;;28.06;21.95
62789;BME280;48826;42.016;21.454;2022-12-20T13:53:55;99513.00;;;28.06;21.58
62789;BME280;48826;42.016;21.454;2022-12-20T13:56:46;99514.59;;;28.07;21.95
62789;BME280;48826;42.016;21.454;2022-12-20T13:59:25;99509.50;;;28.05;22.04
62789;BME280;48826;42.016;21.454;2022-12-20T14:01:55;99509.56;;;28.00;22.28
62789;BME280;48826;42.016;21.454;2022-12-20T14:04:24;99507.91;;;28.04;21.82
62789;BME280;48826;42.016;21.454;2022-12-20T14:06:54;99513.78;;;28.06;21.58
62789;BME280;48826;42.016;21.454;2022-12-20T14:09:30;99506.31;;;28.03;21.62
62789;BME280;48826;42.016;21.454;2022-12-20T14:12:24;99503.63;;;28.03;21.73
62789;BME280;48826;42.016;21.454;2022-12-20T14:14:50;99501.25;;;28.02;22.38
62789;BME280;48826;42.016;21.454;2022-12-20T14:17:26;99495.38;;;28.00;21.51
62789;BME280;48826;42.016;21.454;2022-12-20T14:22:37;99492.16;;;27.98;22.49
62789;BME280;48826;42.016;21.454;2022-12-20T14:25:05;99481.75;;;27.91;21.90
62789;BME280;48826;42.016;21.454;2022-12-20T14:27:35;99490.03;;;27.94;22.34
62789;BME280;48826;42.016;21.454;2022-12-20T14:30:02;99480.13;;;27.95;22.19
62789;BME280;48826;42.016;21.454;2022-12-20T14:32:27;99475.84;;;27.89;22.25
62789;BME280;48826;42.016;21.454;2022-12-20T14:34:53;99484.16;;;27.92;21.94
62789;BME280;48826;42.016;21.454;2022-12-20T14:42:20;99482.56;;;27.91;22.81
62789;BME280;48826;42.016;21.454;2022-12-20T14:44:46;99472.66;;;27.87;22.35
62789;BME280;48826;42.016;21.454;2022-12-20T14:47:25;99477.47;;;27.90;22.50
62789;BME280;48826;42.016;21.454;2022-12-20T14:49:56;99480.41;;;27.88;22.13
62789;BME280;48826;42.016;21.454;2022-12-20T14:57:52;99471.56;;;27.88;22.66